createdAt,value
2023-05-11T00:01:11.969Z,16.18
2023-05-11T00:03:44.980Z,16.16
2023-05-11T00:06:17.196Z,16.15
2023-05-11T00:08:49.416Z,16.13
2023-05-11T00:11:21.678Z,16.04
2023-05-11T00:13:53.831Z,15.91
2023-05-11T00:16:26.213Z,15.96
2023-05-11T00:18:58.662Z,15.93
2023-05-11T00:21:31.152Z,15.89
2023-05-11T00:24:03.433Z,15.83
2023-05-11T00:26:35.862Z,15.79
2023-05-11T00:29:08.013Z,15.78
2023-05-11T00:31:40.543Z,15.78
2023-05-11T00:34:13.263Z,15.72
2023-05-11T00:36:45.893Z,15.67
2023-05-11T00:39:18.473Z,15.56
2023-05-11T00:41:50.674Z,15.58
2023-05-11T00:44:22.998Z,15.58
2023-05-11T00:46:55.318Z,15.53
2023-05-11T00:49:27.770Z,15.50
2023-05-11T00:52:03.144Z,15.45
2023-05-11T00:54:36.836Z,15.40
2023-05-11T00:57:09.218Z,15.37
2023-05-11T00:59:41.596Z,15.26
2023-05-11T01:02:14.060Z,15.31
2023-05-11T01:04:46.917Z,15.28
2023-05-11T01:07:24.324Z,15.24
2023-05-11T01:10:07.642Z,15.23
2023-05-11T01:12:48.164Z,15.18
2023-05-11T01:15:26.172Z,15.18
2023-05-11T01:18:05.595Z,15.19
2023-05-11T01:20:37.969Z,15.13
2023-05-11T01:23:38.799Z,15.11
2023-05-11T01:26:25.172Z,15.14
2023-05-11T01:29:15.423Z,15.10
2023-05-11T01:31:50.872Z,15.05
2023-05-11T01:34:26.949Z,15.09
2023-05-11T01:37:06.495Z,15.05
2023-05-11T01:39:42.170Z,15.07
2023-05-11T01:42:15.483Z,15.07
2023-05-11T01:44:51.611Z,15.06
2023-05-11T01:47:27.451Z,15.07
2023-05-11T01:50:01.908Z,15.05
2023-05-11T01:52:35.639Z,15.11
2023-05-11T01:55:11.205Z,15.12
2023-05-11T01:57:44.524Z,15.07
2023-05-11T02:00:19.652Z,15.00
2023-05-11T02:02:54.708Z,15.10
2023-05-11T02:05:28.418Z,15.14
2023-05-11T02:08:02.586Z,15.14
2023-05-11T02:10:38.289Z,15.18
2023-05-11T02:13:11.510Z,15.15
2023-05-11T02:15:46.160Z,15.18
2023-05-11T02:18:20.429Z,15.19
2023-05-11T02:20:54.028Z,15.29
2023-05-11T02:23:28.196Z,15.25
2023-05-11T02:26:01.069Z,15.26
2023-05-11T02:28:34.037Z,15.23
2023-05-11T02:31:17.996Z,15.22
2023-05-11T02:33:54.620Z,15.23
2023-05-11T02:36:29.590Z,15.22
2023-05-11T02:39:07.051Z,15.21
2023-05-11T02:41:44.799Z,15.21
2023-05-11T02:44:21.314Z,15.19
2023-05-11T02:46:57.037Z,15.21
2023-05-11T02:49:32.875Z,15.13
2023-05-11T02:52:07.624Z,15.06
2023-05-11T02:54:43.831Z,15.00
2023-05-11T02:57:16.762Z,15.00
2023-05-11T02:59:50.723Z,14.90
2023-05-11T03:02:23.732Z,14.99
2023-05-11T03:04:56.408Z,14.95
2023-05-11T03:07:29.231Z,14.84
2023-05-11T03:10:02.784Z,14.93
2023-05-11T03:12:39.105Z,14.94
2023-05-11T03:15:13.153Z,14.93
2023-05-11T03:17:47.563Z,14.92
2023-05-11T03:20:23.468Z,14.89
2023-05-11T03:22:56.724Z,14.88
2023-05-11T03:25:30.013Z,14.88
2023-05-11T03:28:05.536Z,14.88
2023-05-11T03:30:39.073Z,14.88
2023-05-11T03:33:11.371Z,14.89
2023-05-11T03:35:47.808Z,14.89
2023-05-11T03:38:29.255Z,14.82
2023-05-11T03:41:03.291Z,14.90
2023-05-11T03:43:39.918Z,14.94
2023-05-11T03:46:13.287Z,14.95
2023-05-11T03:48:46.233Z,14.93
2023-05-11T03:51:20.948Z,14.93
2023-05-11T03:53:53.470Z,14.96
2023-05-11T03:56:26.094Z,14.94
2023-05-11T03:58:58.682Z,14.95
2023-05-11T04:01:31.481Z,14.95
2023-05-11T04:04:04.033Z,14.99
2023-05-11T04:06:36.867Z,14.99
2023-05-11T04:09:28.131Z,15.01
2023-05-11T04:12:00.912Z,15.08
2023-05-11T04:14:34.139Z,15.11
2023-05-11T04:17:06.628Z,15.14
2023-05-11T04:19:38.873Z,15.13
2023-05-11T04:22:12.255Z,15.15
2023-05-11T04:24:45.280Z,15.17
2023-05-11T04:27:17.812Z,15.07
2023-05-11T04:29:50.001Z,15.23
2023-05-11T04:32:23.708Z,15.24
2023-05-11T04:34:56.216Z,15.22
2023-05-11T04:37:30.404Z,15.26
2023-05-11T04:40:04.526Z,15.28
2023-05-11T04:42:42.613Z,15.25
2023-05-11T04:45:20.218Z,15.20
2023-05-11T04:47:52.865Z,15.27
2023-05-11T04:50:25.190Z,15.23
2023-05-11T04:52:57.989Z,15.22
2023-05-11T04:55:30.417Z,15.16
2023-05-11T04:58:04.530Z,15.26
2023-05-11T05:00:37.796Z,15.22
2023-05-11T05:03:10.045Z,15.26
2023-05-11T05:05:42.306Z,15.20
2023-05-11T05:08:15.789Z,15.17
2023-05-11T05:10:54.653Z,15.20
2023-05-11T05:13:27.314Z,15.28
2023-05-11T05:15:59.972Z,15.27
2023-05-11T05:18:35.661Z,15.33
2023-05-11T05:21:08.461Z,15.42
2023-05-11T05:23:40.851Z,15.49
2023-05-11T05:26:13.283Z,15.48
2023-05-11T05:28:46.196Z,15.57
2023-05-11T05:31:18.821Z,15.59
2023-05-11T05:33:51.876Z,15.58
2023-05-11T05:36:24.371Z,15.43
2023-05-11T05:38:56.662Z,15.55
2023-05-11T05:41:29.919Z,15.60
2023-05-11T05:44:03.726Z,15.65
2023-05-11T05:46:36.476Z,15.68
2023-05-11T05:49:09.321Z,15.81
2023-05-11T05:51:42.599Z,15.93
2023-05-11T05:54:15.218Z,16.05
2023-05-11T05:56:49.335Z,16.16
2023-05-11T05:59:23.604Z,16.14
2023-05-11T06:01:59.639Z,16.29
2023-05-11T06:04:31.990Z,16.40
2023-05-11T06:07:04.541Z,16.50
2023-05-11T06:09:39.028Z,16.47
2023-05-11T06:12:11.908Z,16.57
2023-05-11T06:14:47.373Z,16.61
2023-05-11T06:17:19.855Z,16.69
2023-05-11T06:19:53.499Z,16.58
2023-05-11T06:22:27.757Z,16.61
2023-05-11T06:24:59.889Z,16.73
2023-05-11T06:27:32.450Z,16.75
2023-05-11T06:30:04.873Z,16.83
2023-05-11T06:32:38.913Z,16.89
2023-05-11T06:35:12.310Z,16.86
2023-05-11T06:37:44.803Z,16.95
2023-05-11T06:40:17.423Z,16.95
2023-05-11T06:42:50.242Z,17.12
2023-05-11T06:45:22.792Z,17.13
2023-05-11T06:47:55.182Z,17.21
2023-05-11T06:50:28.488Z,17.26
2023-05-11T06:53:01.215Z,17.26
2023-05-11T06:55:34.649Z,17.34
2023-05-11T06:58:07.239Z,17.27
2023-05-11T07:00:39.483Z,17.31
2023-05-11T07:03:11.733Z,17.45
2023-05-11T07:05:44.357Z,17.54
2023-05-11T07:08:16.684Z,17.63
2023-05-11T07:10:48.804Z,17.68
2023-05-11T07:13:21.238Z,17.68
2023-05-11T07:15:56.637Z,17.73
2023-05-11T07:18:29.690Z,17.88
2023-05-11T07:21:01.763Z,17.89
2023-05-11T07:23:33.935Z,17.92
2023-05-11T07:26:09.089Z,17.98
2023-05-11T07:28:41.560Z,18.02
2023-05-11T07:31:13.706Z,18.08
2023-05-11T07:33:45.817Z,18.06
2023-05-11T07:36:18.427Z,18.09
2023-05-11T07:38:50.701Z,18.15
2023-05-11T07:41:26.130Z,18.16
2023-05-11T07:43:58.512Z,18.19
2023-05-11T07:46:31.280Z,18.26
2023-05-11T07:49:15.774Z,18.28
2023-05-11T07:51:53.222Z,18.45
2023-05-11T07:54:26.361Z,18.47
2023-05-11T07:56:58.355Z,18.54
2023-05-11T07:59:31.270Z,18.59
2023-05-11T08:02:04.254Z,18.72
2023-05-11T08:04:36.734Z,18.80
2023-05-11T08:07:09.140Z,18.87
2023-05-11T08:09:41.530Z,18.93
2023-05-11T08:12:13.838Z,18.93
2023-05-11T08:14:46.120Z,19.00
2023-05-11T08:17:20.369Z,19.02
2023-05-11T08:19:52.545Z,19.11
2023-05-11T08:22:24.653Z,19.19
2023-05-11T08:24:56.815Z,19.26
2023-05-11T08:27:29.072Z,19.31
2023-05-11T08:30:01.455Z,19.37
2023-05-11T08:32:50.113Z,19.47
2023-05-11T08:35:27.757Z,19.55
2023-05-11T08:38:00.030Z,19.65
2023-05-11T08:40:33.861Z,19.75
2023-05-11T08:43:08.050Z,19.74
2023-05-11T08:45:43.412Z,19.88
2023-05-11T08:48:17.839Z,19.92
2023-05-11T08:50:50.162Z,19.91
2023-05-11T08:53:22.423Z,20.01
2023-05-11T08:55:55.922Z,20.12
2023-05-11T08:58:29.194Z,20.10
2023-05-11T09:01:02.288Z,20.21
2023-05-11T09:03:37.221Z,20.26
2023-05-11T09:06:12.805Z,20.33
2023-05-11T09:08:47.316Z,20.40
2023-05-11T09:11:19.396Z,20.50
2023-05-11T09:13:51.964Z,20.53
2023-05-11T09:16:36.354Z,20.67
2023-05-11T09:19:15.152Z,20.64
2023-05-11T09:21:48.301Z,20.75
2023-05-11T09:24:22.852Z,20.89
2023-05-11T09:27:09.323Z,20.93
2023-05-11T09:29:41.554Z,21.00
2023-05-11T09:32:14.833Z,21.08
2023-05-11T09:34:47.647Z,21.20
2023-05-11T09:37:20.921Z,21.36
2023-05-11T09:42:32.836Z,21.51
2023-05-11T09:45:05.401Z,21.51
2023-05-11T09:47:42.304Z,21.60
2023-05-11T09:50:26.201Z,21.56
2023-05-11T09:52:58.958Z,21.65
2023-05-11T09:55:31.106Z,21.71
2023-05-11T09:58:04.761Z,21.81
2023-05-11T10:00:37.354Z,21.96
2023-05-11T10:03:10.369Z,22.00
2023-05-11T10:05:43.041Z,22.00
2023-05-11T10:08:15.460Z,22.13
2023-05-11T10:10:48.435Z,22.21
2023-05-11T10:13:20.556Z,22.30
2023-05-11T10:15:55.278Z,22.41
2023-05-11T10:18:26.730Z,22.50
2023-05-11T10:21:00.691Z,22.65
2023-05-11T10:23:34.708Z,22.71
2023-05-11T10:26:07.914Z,22.82
2023-05-11T10:28:40.906Z,22.63
2023-05-11T10:31:14.283Z,22.72
2023-05-11T10:33:48.613Z,22.86
2023-05-11T10:36:24.403Z,22.97
2023-05-11T10:38:56.870Z,23.02
2023-05-11T10:41:42.563Z,23.06
2023-05-11T10:44:31.534Z,23.11
2023-05-11T10:47:29.022Z,23.04
2023-05-11T10:50:18.065Z,23.07
2023-05-11T10:53:07.085Z,23.18
2023-05-11T10:55:58.558Z,23.36
2023-05-11T10:58:44.661Z,23.52
2023-05-11T11:01:35.218Z,23.52
2023-05-11T11:04:08.600Z,23.60
2023-05-11T11:06:42.632Z,23.75
2023-05-11T11:09:16.686Z,23.79
2023-05-11T11:11:51.683Z,23.91
2023-05-11T11:14:26.304Z,23.99
2023-05-11T11:17:25.813Z,24.03
2023-05-11T11:19:58.210Z,24.08
2023-05-11T11:22:49.429Z,24.07
2023-05-11T11:25:55.088Z,24.12
2023-05-11T11:28:28.256Z,24.23
2023-05-11T11:31:28.081Z,24.41
2023-05-11T11:34:20.928Z,24.58
2023-05-11T11:37:08.691Z,24.71
2023-05-11T11:39:53.794Z,24.75
2023-05-11T11:42:38.926Z,24.84
2023-05-11T11:45:31.559Z,24.93
2023-05-11T11:48:15.229Z,25.05
2023-05-11T11:50:51.377Z,25.04
2023-05-11T11:54:09.246Z,24.54
2023-05-11T11:56:43.836Z,24.67
2023-05-11T11:59:16.721Z,24.77
2023-05-11T12:01:55.398Z,24.79
2023-05-11T12:04:46.284Z,24.92
2023-05-11T12:07:19.948Z,24.97
2023-05-11T12:09:53.142Z,25.06
2023-05-11T12:12:26.249Z,25.00
2023-05-11T12:15:00.094Z,24.59
2023-05-11T12:17:34.659Z,24.43
2023-05-11T12:20:18.681Z,24.14
2023-05-11T12:22:51.519Z,24.39
2023-05-11T12:25:24.353Z,24.50
2023-05-11T12:28:00.509Z,24.65
2023-05-11T12:30:34.694Z,24.79
2023-05-11T12:33:10.653Z,24.91
2023-05-11T12:35:45.065Z,24.95
2023-05-11T12:38:17.664Z,24.91
2023-05-11T12:40:52.178Z,24.60
2023-05-11T12:43:24.675Z,24.39
2023-05-11T12:45:57.001Z,24.50
2023-05-11T12:48:29.395Z,24.67
2023-05-11T12:51:01.845Z,24.75
2023-05-11T12:53:37.870Z,24.55
2023-05-11T12:56:10.682Z,24.38
2023-05-11T12:58:43.821Z,24.21
2023-05-11T13:01:16.982Z,24.11
2023-05-11T13:03:49.581Z,23.95
2023-05-11T13:06:23.122Z,23.86
2023-05-11T13:08:55.354Z,24.05
2023-05-11T13:11:28.776Z,24.21
2023-05-11T13:14:00.993Z,24.50
2023-05-11T13:16:34.713Z,24.77
2023-05-11T13:19:09.242Z,24.65
2023-05-11T13:21:41.724Z,24.53
2023-05-11T13:24:22.795Z,24.79
2023-05-11T13:26:57.006Z,24.85
2023-05-11T13:29:29.853Z,24.65
2023-05-11T13:32:02.347Z,24.47
2023-05-11T13:34:35.170Z,24.38
2023-05-11T13:37:07.638Z,24.32
2023-05-11T13:39:39.830Z,24.13
2023-05-11T13:42:11.953Z,24.39
2023-05-11T13:44:44.245Z,24.55
2023-05-11T13:47:16.613Z,24.86
2023-05-11T13:49:48.985Z,24.92
2023-05-11T13:52:21.603Z,24.75
2023-05-11T13:54:53.717Z,24.60
2023-05-11T13:57:26.033Z,24.45
2023-05-11T13:59:58.300Z,24.34
2023-05-11T14:02:31.067Z,24.17
2023-05-11T14:05:03.787Z,24.09
2023-05-11T14:07:47.018Z,24.37
2023-05-11T14:10:21.017Z,24.52
2023-05-11T14:12:53.553Z,24.71
2023-05-11T14:15:26.068Z,24.44
2023-05-11T14:17:58.616Z,24.45
2023-05-11T14:20:31.006Z,24.37
2023-05-11T14:23:03.395Z,24.18
2023-05-11T14:25:36.694Z,24.11
2023-05-11T14:28:09.190Z,23.99
2023-05-11T14:30:41.995Z,23.85
2023-05-11T14:33:14.447Z,23.69
2023-05-11T14:35:48.644Z,23.61
2023-05-11T14:38:21.071Z,23.52
2023-05-11T14:40:53.409Z,23.50
2023-05-11T14:43:25.376Z,23.88
2023-05-11T14:45:57.599Z,23.98
2023-05-11T14:48:29.959Z,23.83
2023-05-11T14:51:02.555Z,23.75
2023-05-11T14:53:34.913Z,23.67
2023-05-11T14:56:07.751Z,23.60
2023-05-11T14:58:40.186Z,23.63
2023-05-11T15:01:12.653Z,23.54
2023-05-11T15:03:45.471Z,23.42
2023-05-11T15:06:21.541Z,23.40
2023-05-11T15:08:53.918Z,23.64
2023-05-11T15:11:26.125Z,23.74
2023-05-11T15:13:58.479Z,23.93
2023-05-11T15:16:32.155Z,23.88
2023-05-11T15:19:05.505Z,23.95
2023-05-11T15:21:38.205Z,24.20
2023-05-11T15:24:11.163Z,24.33
2023-05-11T15:26:43.579Z,24.40
2023-05-11T15:29:16.794Z,24.48
2023-05-11T15:31:49.489Z,24.61
2023-05-11T15:34:21.942Z,24.82
2023-05-11T15:36:54.181Z,25.03
2023-05-11T15:39:26.348Z,24.93
2023-05-11T15:41:58.715Z,24.99
2023-05-11T15:44:31.029Z,25.02
2023-05-11T15:47:03.688Z,24.93
2023-05-11T15:49:35.778Z,24.82
2023-05-11T15:52:08.932Z,24.79
2023-05-11T15:54:41.096Z,24.76
2023-05-11T15:57:13.855Z,24.63
2023-05-11T15:59:46.165Z,24.62
2023-05-11T16:02:18.521Z,24.59
2023-05-11T16:04:51.233Z,24.58
2023-05-11T16:07:23.433Z,24.58
2023-05-11T16:09:55.627Z,24.64
2023-05-11T16:12:28.057Z,24.61
2023-05-11T16:15:00.296Z,24.58
2023-05-11T16:17:32.309Z,24.51
2023-05-11T16:20:04.944Z,24.54
2023-05-11T16:22:38.997Z,24.67
2023-05-11T16:25:11.934Z,24.65
2023-05-11T16:27:44.373Z,24.57
2023-05-11T16:30:24.241Z,24.74
2023-05-11T16:32:57.594Z,24.78
2023-05-11T16:35:30.764Z,24.75
2023-05-11T16:38:03.133Z,24.76
2023-05-11T16:40:35.411Z,24.81
2023-05-11T16:43:07.601Z,24.83
2023-05-11T16:45:39.918Z,24.84
2023-05-11T16:48:12.248Z,24.82
2023-05-11T16:50:44.462Z,24.82
2023-05-11T16:53:16.609Z,24.81
2023-05-11T16:55:48.730Z,24.72
2023-05-11T16:58:21.335Z,24.72
2023-05-11T17:00:54.051Z,24.68
2023-05-11T17:03:26.952Z,24.62
2023-05-11T17:05:59.725Z,24.56
2023-05-11T17:08:33.359Z,24.40
2023-05-11T17:11:05.958Z,24.40
2023-05-11T17:13:38.249Z,24.31
2023-05-11T17:16:10.770Z,24.26
2023-05-11T17:18:43.627Z,24.22
2023-05-11T17:21:16.903Z,24.14
2023-05-11T17:23:49.131Z,24.10
2023-05-11T17:26:25.064Z,24.08
2023-05-11T17:29:00.284Z,24.08
2023-05-11T17:31:32.808Z,24.07
2023-05-11T17:34:05.387Z,24.02
2023-05-11T17:36:38.093Z,24.03
2023-05-11T17:39:10.616Z,24.01
2023-05-11T17:41:42.965Z,24.01
2023-05-11T17:44:15.684Z,24.03
2023-05-11T17:46:47.877Z,24.03
2023-05-11T17:49:20.372Z,24.04
2023-05-11T17:51:52.589Z,24.07
2023-05-11T17:54:24.903Z,24.12
2023-05-11T17:56:57.253Z,24.16
2023-05-11T17:59:29.833Z,24.17
2023-05-11T18:02:02.275Z,24.13
2023-05-11T18:04:34.893Z,24.13
2023-05-11T18:07:07.751Z,24.07
2023-05-11T18:09:39.960Z,23.87
2023-05-11T18:12:12.835Z,23.66
2023-05-11T18:14:45.119Z,23.50
2023-05-11T18:17:18.488Z,23.29
2023-05-11T18:19:50.884Z,23.09
2023-05-11T18:22:22.950Z,22.81
2023-05-11T18:24:55.212Z,22.70
2023-05-11T18:27:27.275Z,22.44
2023-05-11T18:29:59.425Z,22.29
2023-05-11T18:32:31.870Z,22.17
2023-05-11T18:35:04.671Z,22.04
2023-05-11T18:37:37.048Z,21.81
2023-05-11T18:40:11.790Z,21.71
2023-05-11T18:42:42.498Z,21.59
2023-05-11T18:45:15.143Z,21.41
2023-05-11T18:47:49.568Z,21.29
2023-05-11T18:50:22.473Z,21.23
2023-05-11T18:52:54.997Z,21.09
2023-05-11T18:55:30.872Z,20.99
2023-05-11T18:58:03.985Z,20.88
2023-05-11T19:00:39.413Z,20.67
2023-05-11T19:03:11.974Z,20.69
2023-05-11T19:05:45.017Z,20.55
2023-05-11T19:08:17.631Z,20.48
2023-05-11T19:10:50.576Z,20.40
2023-05-11T19:13:22.874Z,20.37
2023-05-11T19:15:55.214Z,20.29
2023-05-11T19:18:27.850Z,20.17
2023-05-11T19:21:00.414Z,20.11
2023-05-11T19:23:32.842Z,20.02
2023-05-11T19:26:05.126Z,19.98
2023-05-11T19:28:37.536Z,19.92
2023-05-11T19:31:09.862Z,19.79
2023-05-11T19:33:42.211Z,19.71
2023-05-11T19:36:14.961Z,19.69
2023-05-11T19:38:47.286Z,19.64
2023-05-11T19:41:19.386Z,19.58
2023-05-11T19:43:52.038Z,19.47
2023-05-11T19:46:24.473Z,19.50
2023-05-11T19:48:57.770Z,19.49
2023-05-11T19:51:30.287Z,19.43
2023-05-11T19:54:02.829Z,19.43
2023-05-11T19:56:35.231Z,19.31
2023-05-11T19:59:07.205Z,19.26
2023-05-11T20:01:39.400Z,19.23
2023-05-11T20:04:12.826Z,19.19
2023-05-11T20:06:45.717Z,19.17
2023-05-11T20:09:18.443Z,19.12
2023-05-11T20:11:50.690Z,19.10
2023-05-11T20:14:23.232Z,19.05
2023-05-11T20:16:55.786Z,19.03
2023-05-11T20:19:28.287Z,18.97
2023-05-11T20:22:01.593Z,18.97
2023-05-11T20:24:34.233Z,18.96
2023-05-11T20:27:09.713Z,18.92
2023-05-11T20:29:40.511Z,18.83
2023-05-11T20:32:12.888Z,18.83
2023-05-11T20:34:45.183Z,18.80
2023-05-11T20:37:17.638Z,18.75
2023-05-11T20:39:50.123Z,18.67
2023-05-11T20:42:22.362Z,18.61
2023-05-11T20:44:54.912Z,18.56
2023-05-11T20:47:27.232Z,18.54
2023-05-11T20:49:59.449Z,18.47
2023-05-11T20:52:32.519Z,18.43
2023-05-11T20:55:04.904Z,18.39
2023-05-11T20:57:37.162Z,18.25
2023-05-11T21:00:15.639Z,18.32
2023-05-11T21:02:48.542Z,18.22
2023-05-11T21:05:22.943Z,18.32
2023-05-11T21:07:57.332Z,18.27
2023-05-11T21:10:29.647Z,18.23
2023-05-11T21:13:02.247Z,18.19
2023-05-11T21:15:34.516Z,18.11
2023-05-11T21:18:07.818Z,18.10
2023-05-11T21:20:40.260Z,18.11
2023-05-11T21:23:12.410Z,18.05
2023-05-11T21:25:44.681Z,18.02
2023-05-11T21:28:17.119Z,18.01
2023-05-11T21:30:50.147Z,17.95
2023-05-11T21:33:22.420Z,17.95
2023-05-11T21:35:55.380Z,17.92
2023-05-11T21:38:28.206Z,17.91
2023-05-11T21:41:00.515Z,17.91
2023-05-11T21:43:33.376Z,17.85
2023-05-11T21:46:06.199Z,17.80
2023-05-11T21:48:38.254Z,17.81
2023-05-11T21:51:10.702Z,17.83
2023-05-11T21:53:43.121Z,17.74
2023-05-11T21:56:15.370Z,17.74
2023-05-11T21:58:47.914Z,17.68
2023-05-11T22:01:20.248Z,17.65
2023-05-11T22:03:52.461Z,17.64
2023-05-11T22:06:25.077Z,17.61
2023-05-11T22:08:57.508Z,17.55
2023-05-11T22:11:29.685Z,17.54
2023-05-11T22:14:01.930Z,17.50
2023-05-11T22:16:34.097Z,17.47
2023-05-11T22:19:06.886Z,17.44
2023-05-11T22:21:38.954Z,17.42
2023-05-11T22:24:13.554Z,17.40
2023-05-11T22:26:45.665Z,17.38
2023-05-11T22:29:18.157Z,17.34
2023-05-11T22:31:52.200Z,17.30
2023-05-11T22:34:24.523Z,17.26
2023-05-11T22:36:56.787Z,17.21
2023-05-11T22:39:29.355Z,17.17
2023-05-11T22:42:01.846Z,17.16
2023-05-11T22:44:34.144Z,17.10
2023-05-11T22:47:06.486Z,17.06
2023-05-11T22:49:38.799Z,17.02
2023-05-11T22:52:11.413Z,17.02
2023-05-11T22:54:43.902Z,17.01
2023-05-11T22:57:17.736Z,16.95
2023-05-11T22:59:49.787Z,16.92
2023-05-11T23:02:23.120Z,16.87
2023-05-11T23:04:56.150Z,16.83
2023-05-11T23:07:28.744Z,16.81
2023-05-11T23:10:01.156Z,16.80
2023-05-11T23:15:23.366Z,16.72
2023-05-11T23:17:55.556Z,16.71
2023-05-11T23:20:27.854Z,16.67
2023-05-11T23:22:59.750Z,16.65
2023-05-11T23:25:32.167Z,16.61
2023-05-11T23:28:11.290Z,16.56
2023-05-11T23:30:45.987Z,16.58
2023-05-11T23:33:18.217Z,16.54
2023-05-11T23:35:51.118Z,16.53
2023-05-11T23:38:23.597Z,16.52
2023-05-11T23:40:56.535Z,16.52
2023-05-11T23:43:29.157Z,16.47
2023-05-11T23:46:02.525Z,16.38
2023-05-11T23:48:34.969Z,16.41
2023-05-11T23:51:07.290Z,16.39
2023-05-11T23:53:39.241Z,16.32
2023-05-11T23:56:11.528Z,16.36
2023-05-11T23:58:45.738Z,16.35
